sensor_id;sensor_type;location;lat;lon;timestamp;pressure;altitude;pressure_sealevel;temperature;humidity
81155;BME280;70631;50.436;7.826;2024-01-10T00:02:13;100288.84;;;-5.24;50.86
81155;BME280;70631;50.436;7.826;2024-01-10T00:04:38;100280.22;;;-5.26;50.75
81155;BME280;70631;50.436;7.826;2024-01-10T00:07:04;100286.22;;;-5.23;50.79
81155;BME280;70631;50.436;7.826;2024-01-10T00:09:30;100286.28;;;-5.27;50.90
81155;BME280;70631;50.436;7.826;2024-01-10T00:11:55;100285.44;;;-5.29;51.13
81155;BME280;70631;50.436;7.826;2024-01-10T00:14:20;100270.75;;;-5.30;51.23
81155;BME280;70631;50.436;7.826;2024-01-10T00:16:45;100277.69;;;-5.31;51.29
81155;BME280;70631;50.436;7.826;2024-01-10T00:19:11;100276.81;;;-5.31;51.48
81155;BME280;70631;50.436;7.826;2024-01-10T00:21:37;100279.47;;;-5.36;51.57
81155;BME280;70631;50.436;7.826;2024-01-10T00:24:02;100270.78;;;-5.33;51.76
81155;BME280;70631;50.436;7.826;2024-01-10T00:26:28;100269.91;;;-5.32;51.80
81155;BME280;70631;50.436;7.826;2024-01-10T00:28:53;100266.47;;;-5.34;51.74
81155;BME280;70631;50.436;7.826;2024-01-10T00:31:18;100272.50;;;-5.32;51.98
81155;BME280;70631;50.436;7.826;2024-01-10T00:33:43;100265.63;;;-5.35;51.96
81155;BME280;70631;50.436;7.826;2024-01-10T00:36:09;100265.63;;;-5.35;52.16
81155;BME280;70631;50.436;7.826;2024-01-10T00:38:34;100257.84;;;-5.36;51.96
81155;BME280;70631;50.436;7.826;2024-01-10T00:40:59;100259.56;;;-5.35;52.06
81155;BME280;70631;50.436;7.826;2024-01-10T00:43:24;100264.75;;;-5.35;52.03
81155;BME280;70631;50.436;7.826;2024-01-10T00:45:50;100263.03;;;-5.36;52.10
81155;BME280;70631;50.436;7.826;2024-01-10T00:48:15;100251.81;;;-5.38;52.30
81155;BME280;70631;50.436;7.826;2024-01-10T00:50:42;100250.97;;;-5.40;52.36
81155;BME280;70631;50.436;7.826;2024-01-10T00:53:09;100248.41;;;-5.42;52.51
81155;BME280;70631;50.436;7.826;2024-01-10T00:55:34;100247.50;;;-5.39;52.44
81155;BME280;70631;50.436;7.826;2024-01-10T00:58:00;100252.69;;;-5.39;52.48
81155;BME280;70631;50.436;7.826;2024-01-10T01:00:25;100242.31;;;-5.39;52.53
81155;BME280;70631;50.436;7.826;2024-01-10T01:02:51;100243.19;;;-5.40;52.44
81155;BME280;70631;50.436;7.826;2024-01-10T01:05:16;100241.47;;;-5.43;52.54
81155;BME280;70631;50.436;7.826;2024-01-10T01:07:42;100243.22;;;-5.42;52.43
81155;BME280;70631;50.436;7.826;2024-01-10T01:10:07;100243.19;;;-5.43;52.61
81155;BME280;70631;50.436;7.826;2024-01-10T01:12:34;100244.06;;;-5.43;52.61
81155;BME280;70631;50.436;7.826;2024-01-10T01:14:59;100245.78;;;-5.43;52.81
81155;BME280;70631;50.436;7.826;2024-01-10T01:17:24;100251.84;;;-5.43;52.83
81155;BME280;70631;50.436;7.826;2024-01-10T01:19:49;100244.91;;;-5.42;53.01
81155;BME280;70631;50.436;7.826;2024-01-10T01:22:15;100238.88;;;-5.44;52.81
81155;BME280;70631;50.436;7.826;2024-01-10T01:24:40;100250.09;;;-5.42;52.89
81155;BME280;70631;50.436;7.826;2024-01-10T01:27:05;100248.41;;;-5.42;52.91
81155;BME280;70631;50.436;7.826;2024-01-10T01:29:31;100254.44;;;-5.43;52.93
81155;BME280;70631;50.436;7.826;2024-01-10T01:31:56;100252.75;;;-5.45;53.00
81155;BME280;70631;50.436;7.826;2024-01-10T01:34:21;100252.75;;;-5.45;52.81
81155;BME280;70631;50.436;7.826;2024-01-10T01:36:47;100253.59;;;-5.45;52.88
81155;BME280;70631;50.436;7.826;2024-01-10T01:39:12;100252.75;;;-5.47;53.16
81155;BME280;70631;50.436;7.826;2024-01-10T01:41:39;100251.94;;;-5.49;53.18
81155;BME280;70631;50.436;7.826;2024-01-10T01:44:04;100257.97;;;-5.48;53.17
81155;BME280;70631;50.436;7.826;2024-01-10T01:46:30;100254.53;;;-5.49;53.23
81155;BME280;70631;50.436;7.826;2024-01-10T01:48:56;100256.25;;;-5.49;53.06
81155;BME280;70631;50.436;7.826;2024-01-10T01:51:21;100251.06;;;-5.49;53.13
81155;BME280;70631;50.436;7.826;2024-01-10T01:53:48;100251.13;;;-5.54;53.26
81155;BME280;70631;50.436;7.826;2024-01-10T01:56:14;100252.00;;;-5.55;53.51
81155;BME280;70631;50.436;7.826;2024-01-10T01:58:42;100252.00;;;-5.55;53.57
81155;BME280;70631;50.436;7.826;2024-01-10T02:01:09;100250.31;;;-5.58;53.69
81155;BME280;70631;50.436;7.826;2024-01-10T02:03:35;100254.66;;;-5.60;53.88
81155;BME280;70631;50.436;7.826;2024-01-10T02:06:00;100252.03;;;-5.58;53.86
81155;BME280;70631;50.436;7.826;2024-01-10T02:08:30;100253.78;;;-5.59;53.96
81155;BME280;70631;50.436;7.826;2024-01-10T02:10:56;100254.66;;;-5.60;53.97
81155;BME280;70631;50.436;7.826;2024-01-10T02:13:22;100257.28;;;-5.63;53.98
81155;BME280;70631;50.436;7.826;2024-01-10T02:15:47;100252.09;;;-5.66;54.24
81155;BME280;70631;50.436;7.826;2024-01-10T02:18:12;100247.78;;;-5.67;54.24
81155;BME280;70631;50.436;7.826;2024-01-10T02:20:39;100244.38;;;-5.70;54.12
81155;BME280;70631;50.436;7.826;2024-01-10T02:23:04;100244.38;;;-5.70;54.45
81155;BME280;70631;50.436;7.826;2024-01-10T02:25:29;100243.53;;;-5.72;54.40
81155;BME280;70631;50.436;7.826;2024-01-10T02:27:55;100240.13;;;-5.76;54.56
81155;BME280;70631;50.436;7.826;2024-01-10T02:30:20;100240.19;;;-5.80;54.72
81155;BME280;70631;50.436;7.826;2024-01-10T02:32:45;100235.88;;;-5.83;54.65
81155;BME280;70631;50.436;7.826;2024-01-10T02:35:11;100232.44;;;-5.85;54.92
81155;BME280;70631;50.436;7.826;2024-01-10T02:37:36;100228.13;;;-5.85;54.92
81155;BME280;70631;50.436;7.826;2024-01-10T02:40:01;100228.97;;;-5.87;55.00
81155;BME280;70631;50.436;7.826;2024-01-10T02:42:27;100232.44;;;-5.85;55.26
81155;BME280;70631;50.436;7.826;2024-01-10T02:44:53;100230.69;;;-5.86;55.62
81155;BME280;70631;50.436;7.826;2024-01-10T02:47:18;100230.72;;;-5.89;55.48
81155;BME280;70631;50.436;7.826;2024-01-10T02:49:43;100224.72;;;-5.90;55.25
81155;BME280;70631;50.436;7.826;2024-01-10T02:52:09;100229.94;;;-5.91;55.18
81155;BME280;70631;50.436;7.826;2024-01-10T02:54:34;100224.72;;;-5.90;55.37
81155;BME280;70631;50.436;7.826;2024-01-10T02:56:59;100219.56;;;-5.91;55.58
81155;BME280;70631;50.436;7.826;2024-01-10T02:59:24;100225.66;;;-5.95;55.69
81155;BME280;70631;50.436;7.826;2024-01-10T03:01:50;100223.94;;;-5.96;55.93
81155;BME280;70631;50.436;7.826;2024-01-10T03:04:15;100224.81;;;-5.97;55.64
81155;BME280;70631;50.436;7.826;2024-01-10T03:06:40;100222.22;;;-5.97;56.00
81155;BME280;70631;50.436;7.826;2024-01-10T03:09:06;100218.78;;;-5.99;55.71
81155;BME280;70631;50.436;7.826;2024-01-10T03:11:31;100220.53;;;-6.01;55.86
81155;BME280;70631;50.436;7.826;2024-01-10T03:14:03;100223.13;;;-6.01;55.83
81155;BME280;70631;50.436;7.826;2024-01-10T03:16:29;100222.25;;;-6.00;55.88
81155;BME280;70631;50.436;7.826;2024-01-10T03:18:55;100216.22;;;-6.02;56.23
81155;BME280;70631;50.436;7.826;2024-01-10T03:21:20;100219.72;;;-6.05;56.17
81155;BME280;70631;50.436;7.826;2024-01-10T03:23:50;100220.56;;;-6.07;56.34
81155;BME280;70631;50.436;7.826;2024-01-10T03:26:15;100218.88;;;-6.11;56.52
81155;BME280;70631;50.436;7.826;2024-01-10T03:28:40;100227.50;;;-6.09;56.41
81155;BME280;70631;50.436;7.826;2024-01-10T03:31:06;100228.38;;;-6.10;56.31
81155;BME280;70631;50.436;7.826;2024-01-10T03:33:31;100222.34;;;-6.12;56.28
81155;BME280;70631;50.436;7.826;2024-01-10T03:35:56;100217.19;;;-6.16;56.74
81155;BME280;70631;50.436;7.826;2024-01-10T03:38:21;100218.91;;;-6.14;56.61
81155;BME280;70631;50.436;7.826;2024-01-10T03:40:47;100212.88;;;-6.15;56.54
81155;BME280;70631;50.436;7.826;2024-01-10T03:43:12;100208.56;;;-6.18;56.59
81155;BME280;70631;50.436;7.826;2024-01-10T03:45:37;100208.56;;;-6.18;56.54
81155;BME280;70631;50.436;7.826;2024-01-10T03:48:03;100207.72;;;-6.18;56.56
81155;BME280;70631;50.436;7.826;2024-01-10T03:50:28;100212.91;;;-6.20;56.69
81155;BME280;70631;50.436;7.826;2024-01-10T03:52:54;100213.84;;;-6.24;57.05
81155;BME280;70631;50.436;7.826;2024-01-10T03:55:19;100210.41;;;-6.30;56.89
81155;BME280;70631;50.436;7.826;2024-01-10T03:57:44;100208.69;;;-6.28;57.10
81155;BME280;70631;50.436;7.826;2024-01-10T04:00:10;100212.13;;;-6.29;56.85
81155;BME280;70631;50.436;7.826;2024-01-10T04:02:37;100206.97;;;-6.31;56.92
81155;BME280;70631;50.436;7.826;2024-01-10T04:05:08;100213.91;;;-6.33;57.12
81155;BME280;70631;50.436;7.826;2024-01-10T04:07:41;100201.84;;;-6.37;57.37
81155;BME280;70631;50.436;7.826;2024-01-10T04:10:09;100202.72;;;-6.38;57.46
81155;BME280;70631;50.436;7.826;2024-01-10T04:12:38;100207.09;;;-6.43;57.30
81155;BME280;70631;50.436;7.826;2024-01-10T04:15:04;100212.31;;;-6.46;57.67
81155;BME280;70631;50.436;7.826;2024-01-10T04:17:30;100213.19;;;-6.47;57.67
81155;BME280;70631;50.436;7.826;2024-01-10T04:19:55;100210.59;;;-6.49;57.63
81155;BME280;70631;50.436;7.826;2024-01-10T04:22:20;100214.91;;;-6.48;57.49
81155;BME280;70631;50.436;7.826;2024-01-10T04:24:46;100220.09;;;-6.49;57.70
81155;BME280;70631;50.436;7.826;2024-01-10T04:27:11;100226.16;;;-6.50;57.80
81155;BME280;70631;50.436;7.826;2024-01-10T04:29:37;100231.34;;;-6.53;58.29
81155;BME280;70631;50.436;7.826;2024-01-10T04:32:02;100227.91;;;-6.55;58.53
81155;BME280;70631;50.436;7.826;2024-01-10T04:34:27;100221.88;;;-6.59;58.52
81155;BME280;70631;50.436;7.826;2024-01-10T04:36:53;100227.94;;;-6.58;58.37
81155;BME280;70631;50.436;7.826;2024-01-10T04:39:18;100225.31;;;-6.55;58.26
81155;BME280;70631;50.436;7.826;2024-01-10T04:41:43;100216.66;;;-6.53;58.33
81155;BME280;70631;50.436;7.826;2024-01-10T04:44:09;100214.06;;;-6.54;58.16
81155;BME280;70631;50.436;7.826;2024-01-10T04:46:34;100223.59;;;-6.56;58.17
81155;BME280;70631;50.436;7.826;2024-01-10T04:48:59;100221.88;;;-6.57;58.36
81155;BME280;70631;50.436;7.826;2024-01-10T04:51:24;100227.94;;;-6.58;58.39
81155;BME280;70631;50.436;7.826;2024-01-10T04:53:50;100222.75;;;-6.58;58.58
81155;BME280;70631;50.436;7.826;2024-01-10T04:56:15;100215.84;;;-6.58;58.52
81155;BME280;70631;50.436;7.826;2024-01-10T04:58:41;100215.81;;;-6.56;58.40
81155;BME280;70631;50.436;7.826;2024-01-10T05:01:06;100218.44;;;-6.58;58.34
81155;BME280;70631;50.436;7.826;2024-01-10T05:03:31;100216.72;;;-6.60;58.48
81155;BME280;70631;50.436;7.826;2024-01-10T05:05:56;100209.81;;;-6.60;58.41
81155;BME280;70631;50.436;7.826;2024-01-10T05:08:22;100208.94;;;-6.60;58.46
81155;BME280;70631;50.436;7.826;2024-01-10T05:10:47;100205.47;;;-6.59;58.39
81155;BME280;70631;50.436;7.826;2024-01-10T05:13:12;100201.19;;;-6.60;58.68
81155;BME280;70631;50.436;7.826;2024-01-10T05:15:39;100202.88;;;-6.59;58.67
81155;BME280;70631;50.436;7.826;2024-01-10T05:18:04;100196.84;;;-6.58;58.69
81155;BME280;70631;50.436;7.826;2024-01-10T05:20:29;100197.69;;;-6.56;58.62
81155;BME280;70631;50.436;7.826;2024-01-10T05:22:55;100196.81;;;-6.55;58.87
81155;BME280;70631;50.436;7.826;2024-01-10T05:25:24;100199.41;;;-6.55;58.68
81155;BME280;70631;50.436;7.826;2024-01-10T05:27:49;100192.47;;;-6.55;58.86
81155;BME280;70631;50.436;7.826;2024-01-10T05:30:14;100199.41;;;-6.55;58.75
81155;BME280;70631;50.436;7.826;2024-01-10T05:32:39;100199.41;;;-6.57;58.76
81155;BME280;70631;50.436;7.826;2024-01-10T05:35:11;100201.19;;;-6.60;58.94
81155;BME280;70631;50.436;7.826;2024-01-10T05:37:36;100196.84;;;-6.58;58.85
81155;BME280;70631;50.436;7.826;2024-01-10T05:40:02;100195.13;;;-6.59;58.84
81155;BME280;70631;50.436;7.826;2024-01-10T05:42:29;100199.44;;;-6.58;58.96
81155;BME280;70631;50.436;7.826;2024-01-10T05:44:55;100194.25;;;-6.60;58.88
81155;BME280;70631;50.436;7.826;2024-01-10T05:47:20;100198.56;;;-6.57;59.04
81155;BME280;70631;50.436;7.826;2024-01-10T05:49:45;100197.69;;;-6.56;59.44
81155;BME280;70631;50.436;7.826;2024-01-10T05:52:10;100194.25;;;-6.60;59.64
81155;BME280;70631;50.436;7.826;2024-01-10T05:54:37;100197.72;;;-6.59;59.57
81155;BME280;70631;50.436;7.826;2024-01-10T05:57:02;100197.72;;;-6.59;59.45
81155;BME280;70631;50.436;7.826;2024-01-10T05:59:27;100198.56;;;-6.59;59.62
81155;BME280;70631;50.436;7.826;2024-01-10T06:01:53;100199.41;;;-6.57;59.49
81155;BME280;70631;50.436;7.826;2024-01-10T06:04:18;100201.13;;;-6.56;59.46
81155;BME280;70631;50.436;7.826;2024-01-10T06:06:43;100209.75;;;-6.55;59.41
81155;BME280;70631;50.436;7.826;2024-01-10T06:09:10;100208.88;;;-6.54;59.52
81155;BME280;70631;50.436;7.826;2024-01-10T06:11:42;100214.03;;;-6.51;59.65
81155;BME280;70631;50.436;7.826;2024-01-10T06:14:08;100206.28;;;-6.51;59.70
81155;BME280;70631;50.436;7.826;2024-01-10T06:16:33;100204.56;;;-6.49;59.77
81155;BME280;70631;50.436;7.826;2024-01-10T06:18:59;100198.47;;;-6.47;59.67
81155;BME280;70631;50.436;7.826;2024-01-10T06:21:24;100201.88;;;-6.40;59.79
81155;BME280;70631;50.436;7.826;2024-01-10T06:23:49;100194.03;;;-6.35;59.74
81155;BME280;70631;50.436;7.826;2024-01-10T06:26:15;100194.88;;;-6.32;59.64
81155;BME280;70631;50.436;7.826;2024-01-10T06:28:41;100205.25;;;-6.29;59.65
81155;BME280;70631;50.436;7.826;2024-01-10T06:31:07;100199.16;;;-6.25;59.60
81155;BME280;70631;50.436;7.826;2024-01-10T06:33:33;100194.78;;;-6.21;59.56
81155;BME280;70631;50.436;7.826;2024-01-10T06:35:58;100195.66;;;-6.21;59.58
81155;BME280;70631;50.436;7.826;2024-01-10T06:38:23;100188.78;;;-6.25;59.46
81155;BME280;70631;50.436;7.826;2024-01-10T06:40:49;100192.22;;;-6.24;59.40
81155;BME280;70631;50.436;7.826;2024-01-10T06:43:15;100196.56;;;-6.25;59.51
81155;BME280;70631;50.436;7.826;2024-01-10T06:45:41;100197.44;;;-6.26;59.67
81155;BME280;70631;50.436;7.826;2024-01-10T06:48:07;100196.59;;;-6.28;59.62
81155;BME280;70631;50.436;7.826;2024-01-10T06:50:33;100195.72;;;-6.28;59.85
81155;BME280;70631;50.436;7.826;2024-01-10T06:52:58;100195.72;;;-6.30;59.74
81155;BME280;70631;50.436;7.826;2024-01-10T06:55:24;100201.78;;;-6.28;59.58
81155;BME280;70631;50.436;7.826;2024-01-10T06:57:49;100194.88;;;-6.29;59.72
81155;BME280;70631;50.436;7.826;2024-01-10T07:00:19;100198.31;;;-6.30;59.70
81155;BME280;70631;50.436;7.826;2024-01-10T07:02:45;100200.06;;;-6.29;59.60
81155;BME280;70631;50.436;7.826;2024-01-10T07:05:10;100202.63;;;-6.30;59.53
81155;BME280;70631;50.436;7.826;2024-01-10T07:07:35;100207.81;;;-6.27;59.71
81155;BME280;70631;50.436;7.826;2024-01-10T07:10:04;100216.47;;;-6.27;59.75
81155;BME280;70631;50.436;7.826;2024-01-10T07:12:33;100206.06;;;-6.25;59.83
81155;BME280;70631;50.436;7.826;2024-01-10T07:14:59;100212.16;;;-6.28;59.97
81155;BME280;70631;50.436;7.826;2024-01-10T07:17:24;100213.00;;;-6.27;59.99
81155;BME280;70631;50.436;7.826;2024-01-10T07:19:49;100213.88;;;-6.27;59.87
81155;BME280;70631;50.436;7.826;2024-01-10T07:22:16;100214.69;;;-6.22;59.91
81155;BME280;70631;50.436;7.826;2024-01-10T07:24:43;100226.72;;;-6.18;60.01
81155;BME280;70631;50.436;7.826;2024-01-10T07:27:08;100218.91;;;-6.14;59.96
81155;BME280;70631;50.436;7.826;2024-01-10T07:29:34;100224.06;;;-6.11;60.03
81155;BME280;70631;50.436;7.826;2024-01-10T07:31:59;100230.09;;;-6.08;60.20
81155;BME280;70631;50.436;7.826;2024-01-10T07:34:25;100228.31;;;-6.01;59.96
81155;BME280;70631;50.436;7.826;2024-01-10T07:36:50;100222.22;;;-5.97;60.18
81155;BME280;70631;50.436;7.826;2024-01-10T07:39:15;100229.97;;;-5.96;60.17
81155;BME280;70631;50.436;7.826;2024-01-10T07:41:43;100236.78;;;-5.89;60.15
81155;BME280;70631;50.436;7.826;2024-01-10T07:44:09;100242.78;;;-5.82;60.13
81155;BME280;70631;50.436;7.826;2024-01-10T07:46:35;100254.81;;;-5.75;60.13
81155;BME280;70631;50.436;7.826;2024-01-10T07:49:02;100253.03;;;-5.70;59.85
81155;BME280;70631;50.436;7.826;2024-01-10T07:51:29;100251.22;;;-5.65;60.06
81155;BME280;70631;50.436;7.826;2024-01-10T07:53:54;100252.09;;;-5.63;59.98
81155;BME280;70631;50.436;7.826;2024-01-10T07:56:19;100252.91;;;-5.58;60.02
81155;BME280;70631;50.436;7.826;2024-01-10T07:58:44;100251.09;;;-5.51;59.83
81155;BME280;70631;50.436;7.826;2024-01-10T08:01:10;100251.03;;;-5.48;59.75
81155;BME280;70631;50.436;7.826;2024-01-10T08:03:36;100254.47;;;-5.44;59.64
81155;BME280;70631;50.436;7.826;2024-01-10T08:06:02;100244.06;;;-5.44;59.54
81155;BME280;70631;50.436;7.826;2024-01-10T08:08:27;100251.84;;;-5.40;59.62
81155;BME280;70631;50.436;7.826;2024-01-10T08:10:52;100255.19;;;-5.32;59.51
81155;BME280;70631;50.436;7.826;2024-01-10T08:13:17;100255.97;;;-5.25;59.48
81155;BME280;70631;50.436;7.826;2024-01-10T08:15:43;100265.41;;;-5.16;59.25
81155;BME280;70631;50.436;7.826;2024-01-10T08:18:08;100249.78;;;-5.13;59.21
81155;BME280;70631;50.436;7.826;2024-01-10T08:20:33;100259.25;;;-5.11;59.05
81155;BME280;70631;50.436;7.826;2024-01-10T08:22:59;100263.56;;;-5.10;58.72
81155;BME280;70631;50.436;7.826;2024-01-10T08:25:24;100259.25;;;-5.11;58.76
81155;BME280;70631;50.436;7.826;2024-01-10T08:27:50;100263.56;;;-5.08;58.87
81155;BME280;70631;50.436;7.826;2024-01-10T08:30:17;100257.44;;;-5.06;59.12
81155;BME280;70631;50.436;7.826;2024-01-10T08:32:42;100258.25;;;-5.01;58.98
81155;BME280;70631;50.436;7.826;2024-01-10T08:35:07;100257.31;;;-4.94;58.71
81155;BME280;70631;50.436;7.826;2024-01-10T08:37:36;100253.78;;;-4.89;59.01
81155;BME280;70631;50.436;7.826;2024-01-10T08:40:02;100255.41;;;-4.82;58.89
81155;BME280;70631;50.436;7.826;2024-01-10T08:42:32;100260.47;;;-4.73;58.72
81155;BME280;70631;50.436;7.826;2024-01-10T08:44:58;100260.44;;;-4.70;58.60
81155;BME280;70631;50.436;7.826;2024-01-10T08:47:23;100265.63;;;-4.70;58.47
81155;BME280;70631;50.436;7.826;2024-01-10T08:49:48;100257.75;;;-4.66;58.54
81155;BME280;70631;50.436;7.826;2024-01-10T08:52:14;100256.75;;;-4.57;58.56
81155;BME280;70631;50.436;7.826;2024-01-10T08:54:39;100260.06;;;-4.46;58.65
81155;BME280;70631;50.436;7.826;2024-01-10T08:57:04;100261.69;;;-4.39;58.46
81155;BME280;70631;50.436;7.826;2024-01-10T08:59:30;100263.41;;;-4.39;58.42
81155;BME280;70631;50.436;7.826;2024-01-10T09:01:55;100274.69;;;-4.39;58.25
81155;BME280;70631;50.436;7.826;2024-01-10T09:04:20;100277.28;;;-4.39;58.16
81155;BME280;70631;50.436;7.826;2024-01-10T09:06:46;100273.72;;;-4.32;58.00
81155;BME280;70631;50.436;7.826;2024-01-10T09:09:11;100276.16;;;-4.22;57.91
81155;BME280;70631;50.436;7.826;2024-01-10T09:11:38;100267.38;;;-4.15;57.99
81155;BME280;70631;50.436;7.826;2024-01-10T09:14:04;100267.19;;;-4.03;57.88
81155;BME280;70631;50.436;7.826;2024-01-10T09:16:29;100273.94;;;-3.93;57.54
81155;BME280;70631;50.436;7.826;2024-01-10T09:18:54;100274.72;;;-3.88;57.30
81155;BME280;70631;50.436;7.826;2024-01-10T09:21:22;100274.63;;;-3.82;57.29
81155;BME280;70631;50.436;7.826;2024-01-10T09:23:47;100283.19;;;-3.77;57.58
81155;BME280;70631;50.436;7.826;2024-01-10T09:26:16;100280.47;;;-3.71;57.26
81155;BME280;70631;50.436;7.826;2024-01-10T09:28:41;100286.47;;;-3.65;56.76
81155;BME280;70631;50.436;7.826;2024-01-10T09:31:06;100282.97;;;-3.64;56.71
81155;BME280;70631;50.436;7.826;2024-01-10T09:33:32;100285.44;;;-3.57;56.62
81155;BME280;70631;50.436;7.826;2024-01-10T09:35:57;100284.44;;;-3.51;56.37
81155;BME280;70631;50.436;7.826;2024-01-10T09:38:22;100284.31;;;-3.42;56.48
81155;BME280;70631;50.436;7.826;2024-01-10T09:40:48;100288.38;;;-3.29;56.45
81155;BME280;70631;50.436;7.826;2024-01-10T09:43:13;100289.06;;;-3.19;56.03
81155;BME280;70631;50.436;7.826;2024-01-10T09:45:43;100281.00;;;-3.09;55.73
81155;BME280;70631;50.436;7.826;2024-01-10T09:48:13;100291.22;;;-2.98;55.48
81155;BME280;70631;50.436;7.826;2024-01-10T09:50:38;100284.06;;;-2.88;55.55
81155;BME280;70631;50.436;7.826;2024-01-10T09:53:05;100281.28;;;-2.79;55.22
81155;BME280;70631;50.436;7.826;2024-01-10T09:55:34;100277.69;;;-2.75;54.63
81155;BME280;70631;50.436;7.826;2024-01-10T09:58:06;100269.06;;;-2.77;54.77
81155;BME280;70631;50.436;7.826;2024-01-10T10:00:36;100265.47;;;-2.73;54.73
81155;BME280;70631;50.436;7.826;2024-01-10T10:03:02;100270.41;;;-2.59;54.09
81155;BME280;70631;50.436;7.826;2024-01-10T10:05:29;100271.25;;;-2.59;54.22
81155;BME280;70631;50.436;7.826;2024-01-10T10:07:54;100272.03;;;-2.55;54.08
81155;BME280;70631;50.436;7.826;2024-01-10T10:10:20;100264.00;;;-2.46;54.28
81155;BME280;70631;50.436;7.826;2024-01-10T10:12:49;100258.56;;;-2.37;54.27
81155;BME280;70631;50.436;7.826;2024-01-10T10:15:21;100260.97;;;-2.29;54.27
81155;BME280;70631;50.436;7.826;2024-01-10T10:17:50;100259.28;;;-2.30;53.38
81155;BME280;70631;50.436;7.826;2024-01-10T10:20:25;100257.56;;;-2.31;53.17
81155;BME280;70631;50.436;7.826;2024-01-10T10:25:26;100255.00;;;-2.33;53.38
81155;BME280;70631;50.436;7.826;2024-01-10T10:27:51;100254.06;;;-2.30;53.43
81155;BME280;70631;50.436;7.826;2024-01-10T10:30:17;100258.38;;;-2.29;53.59
81155;BME280;70631;50.436;7.826;2024-01-10T10:32:43;100264.44;;;-2.29;53.37
81155;BME280;70631;50.436;7.826;2024-01-10T10:35:08;100259.16;;;-2.26;53.38
81155;BME280;70631;50.436;7.826;2024-01-10T10:37:34;100257.31;;;-2.22;53.75
81155;BME280;70631;50.436;7.826;2024-01-10T10:39:59;100253.94;;;-2.26;53.52
81155;BME280;70631;50.436;7.826;2024-01-10T10:42:25;100257.19;;;-2.18;54.04
81155;BME280;70631;50.436;7.826;2024-01-10T10:44:55;100261.47;;;-2.13;53.71
81155;BME280;70631;50.436;7.826;2024-01-10T10:47:23;100258.06;;;-2.17;53.37
81155;BME280;70631;50.436;7.826;2024-01-10T10:49:53;100251.28;;;-2.24;53.49
81155;BME280;70631;50.436;7.826;2024-01-10T10:52:20;100240.78;;;-2.21;53.69
81155;BME280;70631;50.436;7.826;2024-01-10T10:54:47;100253.75;;;-2.18;53.77
81155;BME280;70631;50.436;7.826;2024-01-10T10:57:13;100246.88;;;-2.22;53.54
81155;BME280;70631;50.436;7.826;2024-01-10T10:59:39;100243.78;;;-2.36;53.57
81155;BME280;70631;50.436;7.826;2024-01-10T11:02:09;100244.59;;;-2.34;53.65
81155;BME280;70631;50.436;7.826;2024-01-10T11:04:35;100249.84;;;-2.36;53.66
81155;BME280;70631;50.436;7.826;2024-01-10T11:07:01;100250.91;;;-2.44;53.77
81155;BME280;70631;50.436;7.826;2024-01-10T11:09:26;100244.06;;;-2.49;53.79
81155;BME280;70631;50.436;7.826;2024-01-10T11:19:51;100254.56;;;-2.52;54.26
81155;BME280;70631;50.436;7.826;2024-01-10T11:22:40;100251.25;;;-2.58;54.14
81155;BME280;70631;50.436;7.826;2024-01-10T11:25:08;100243.41;;;-2.58;54.34
81155;BME280;70631;50.436;7.826;2024-01-10T11:27:33;100251.13;;;-2.54;54.17
81155;BME280;70631;50.436;7.826;2024-01-10T11:30:00;100254.44;;;-2.47;54.25
81155;BME280;70631;50.436;7.826;2024-01-10T11:32:26;100261.25;;;-2.41;54.09
81155;BME280;70631;50.436;7.826;2024-01-10T11:34:56;100242.06;;;-2.37;54.09
81155;BME280;70631;50.436;7.826;2024-01-10T11:37:23;100238.41;;;-2.30;53.93
81155;BME280;70631;50.436;7.826;2024-01-10T11:39:50;100240.03;;;-2.26;53.85
81155;BME280;70631;50.436;7.826;2024-01-10T11:42:23;100240.84;;;-2.24;53.26
81155;BME280;70631;50.436;7.826;2024-01-10T11:44:50;100237.13;;;-2.14;53.32
81155;BME280;70631;50.436;7.826;2024-01-10T11:47:15;100237.78;;;-2.06;53.23
81155;BME280;70631;50.436;7.826;2024-01-10T11:49:53;100234.19;;;-2.02;53.29
81155;BME280;70631;50.436;7.826;2024-01-10T11:52:21;100234.06;;;-1.97;53.25
81155;BME280;70631;50.436;7.826;2024-01-10T11:54:46;100235.78;;;-1.95;53.43
81155;BME280;70631;50.436;7.826;2024-01-10T11:57:21;100228.66;;;-1.90;53.26
81155;BME280;70631;50.436;7.826;2024-01-10T11:59:50;100231.16;;;-1.85;53.11
81155;BME280;70631;50.436;7.826;2024-01-10T12:02:16;100223.00;;;-1.74;53.29
81155;BME280;70631;50.436;7.826;2024-01-10T12:04:42;100213.09;;;-1.62;53.13
81155;BME280;70631;50.436;7.826;2024-01-10T12:07:08;100211.91;;;-1.50;52.83
81155;BME280;70631;50.436;7.826;2024-01-10T12:09:34;100211.75;;;-1.44;52.29
81155;BME280;70631;50.436;7.826;2024-01-10T12:12:00;100209.03;;;-1.41;52.44
81155;BME280;70631;50.436;7.826;2024-01-10T12:14:26;100206.34;;;-1.38;52.48
81155;BME280;70631;50.436;7.826;2024-01-10T12:16:52;100213.41;;;-1.41;52.73
81155;BME280;70631;50.436;7.826;2024-01-10T12:19:18;100211.88;;;-1.48;52.52
81155;BME280;70631;50.436;7.826;2024-01-10T12:21:43;100211.97;;;-1.53;52.85
81155;BME280;70631;50.436;7.826;2024-01-10T12:24:09;100208.69;;;-1.60;52.64
81155;BME280;70631;50.436;7.826;2024-01-10T12:26:34;100216.56;;;-1.61;52.85
81155;BME280;70631;50.436;7.826;2024-01-10T12:29:01;100219.22;;;-1.63;53.13
81155;BME280;70631;50.436;7.826;2024-01-10T12:31:29;100216.47;;;-1.58;53.15
81155;BME280;70631;50.436;7.826;2024-01-10T12:33:58;100217.28;;;-1.56;52.80
81155;BME280;70631;50.436;7.826;2024-01-10T12:36:24;100219.88;;;-1.55;52.64
81155;BME280;70631;50.436;7.826;2024-01-10T12:38:49;100212.06;;;-1.56;52.69
81155;BME280;70631;50.436;7.826;2024-01-10T12:41:16;100210.13;;;-1.48;52.50
81155;BME280;70631;50.436;7.826;2024-01-10T12:43:42;100217.31;;;-1.25;52.54
81155;BME280;70631;50.436;7.826;2024-01-10T12:46:09;100215.72;;;-1.01;52.36
81155;BME280;70631;50.436;7.826;2024-01-10T12:48:41;100223.63;;;-0.75;51.75
81155;BME280;70631;50.436;7.826;2024-01-10T12:51:11;100220.69;;;-0.64;51.78
81155;BME280;70631;50.436;7.826;2024-01-10T12:53:39;100231.06;;;-0.61;51.03
81155;BME280;70631;50.436;7.826;2024-01-10T12:56:05;100232.88;;;-0.63;50.72